createdAt,value
2023-02-17T00:02:15.881Z,11.37
2023-02-17T00:07:18.999Z,9.76
2023-02-17T00:12:21.760Z,10.09
2023-02-17T00:17:24.864Z,10.87
2023-02-17T00:22:27.775Z,9.98
2023-02-17T00:27:30.673Z,10.86
2023-02-17T00:32:33.680Z,9.11
2023-02-17T00:37:36.585Z,11.44
2023-02-17T00:42:39.604Z,11.63
2023-02-17T00:47:42.395Z,9.04
2023-02-17T00:52:45.302Z,10.82
2023-02-17T00:57:48.201Z,11.18
2023-02-17T01:02:51.118Z,8.81
2023-02-17T01:07:54.113Z,10.72
2023-02-17T01:12:57.118Z,12.55
2023-02-17T01:18:00.023Z,10.34
2023-02-17T01:23:03.506Z,11.14
2023-02-17T01:28:07.838Z,11.93
2023-02-17T01:33:11.095Z,9.41
2023-02-17T01:38:13.783Z,11.14
2023-02-17T01:43:18.487Z,11.79
2023-02-17T01:48:32.636Z,10.13
2023-02-17T01:53:40.821Z,11.89
2023-02-17T01:58:49.619Z,10.45
2023-02-17T02:03:53.507Z,10.88
2023-02-17T02:09:11.250Z,11.86
2023-02-17T02:14:14.248Z,10.51
2023-02-17T02:19:22.893Z,11.47
2023-02-17T02:24:44.125Z,11.68
2023-02-17T02:30:02.751Z,9.44
2023-02-17T02:35:11.742Z,11.73
2023-02-17T02:40:17.113Z,11.29
2023-02-17T02:45:21.562Z,9.68
2023-02-17T02:50:30.486Z,11.71
2023-02-17T02:55:45.678Z,10.30
2023-02-17T03:00:48.422Z,11.53
2023-02-17T03:06:08.478Z,10.96
2023-02-17T03:11:12.517Z,11.06
2023-02-17T03:16:15.354Z,12.16
2023-02-17T03:21:19.449Z,10.04
2023-02-17T03:26:22.489Z,11.88
2023-02-17T03:31:25.872Z,11.77
2023-02-17T03:36:30.143Z,10.28
2023-02-17T03:41:33.108Z,12.44
2023-02-17T03:46:38.675Z,12.28
2023-02-17T03:51:41.578Z,9.74
2023-02-17T03:56:44.483Z,10.26
2023-02-17T04:01:47.592Z,13.01
2023-02-17T04:06:50.446Z,11.36
2023-02-17T04:11:53.495Z,9.45
2023-02-17T04:16:56.296Z,11.42
2023-02-17T04:21:59.201Z,12.83
2023-02-17T04:27:02.759Z,10.26
2023-02-17T04:32:05.663Z,10.40
2023-02-17T04:37:08.625Z,12.91
2023-02-17T04:42:11.531Z,12.20
2023-02-17T04:47:14.330Z,9.66
2023-02-17T04:52:17.131Z,10.10
2023-02-17T04:57:20.074Z,12.70
2023-02-17T05:02:22.956Z,10.85
2023-02-17T05:07:26.047Z,10.38
2023-02-17T05:12:28.847Z,12.98
2023-02-17T05:17:31.852Z,11.16
2023-02-17T05:22:34.767Z,10.81
2023-02-17T05:27:41.850Z,12.87
2023-02-17T05:32:45.482Z,10.50
2023-02-17T05:37:48.383Z,10.30
2023-02-17T05:42:51.287Z,12.64
2023-02-17T05:47:54.194Z,10.60
2023-02-17T05:52:57.529Z,10.38
2023-02-17T05:58:01.843Z,12.73
2023-02-17T06:03:04.862Z,11.00
2023-02-17T06:08:07.856Z,9.20
2023-02-17T06:13:11.041Z,11.83
2023-02-17T06:18:14.506Z,12.24
2023-02-17T06:23:17.491Z,9.64
2023-02-17T06:28:20.400Z,11.22
2023-02-17T06:33:23.297Z,12.82
2023-02-17T06:38:26.579Z,10.46
2023-02-17T06:43:29.612Z,10.29
2023-02-17T06:48:33.347Z,12.93
2023-02-17T06:53:36.599Z,10.80
2023-02-17T06:58:39.746Z,8.82
2023-02-17T07:03:43.114Z,9.57
2023-02-17T07:08:46.761Z,12.67
2023-02-17T07:13:49.806Z,12.61
2023-02-17T07:18:52.707Z,10.40
2023-02-17T07:23:55.650Z,12.71
2023-02-17T07:28:59.198Z,11.51
2023-02-17T07:34:04.249Z,9.38
2023-02-17T07:39:07.399Z,10.00
2023-02-17T07:44:10.596Z,12.24
2023-02-17T07:49:15.654Z,12.77
2023-02-17T07:54:19.900Z,11.00
2023-02-17T07:59:22.924Z,12.32
2023-02-17T08:04:25.983Z,10.70
2023-02-17T08:09:47.583Z,12.29
2023-02-17T08:14:50.462Z,11.10
2023-02-17T08:19:53.378Z,11.43
2023-02-17T08:24:56.550Z,12.32
2023-02-17T08:29:59.374Z,10.33
2023-02-17T08:35:02.491Z,12.10
2023-02-17T08:40:05.957Z,12.79
2023-02-17T08:45:09.201Z,11.11
2023-02-17T08:50:15.981Z,13.29
2023-02-17T08:55:20.424Z,12.41
2023-02-17T09:00:23.457Z,12.82
2023-02-17T09:05:26.707Z,13.39
2023-02-17T09:10:30.930Z,11.00
2023-02-17T09:15:33.796Z,11.07
2023-02-17T09:20:38.001Z,13.41
2023-02-17T09:25:40.960Z,11.36
2023-02-17T09:30:53.604Z,13.15
2023-02-17T09:36:00.163Z,12.42
2023-02-17T09:41:19.676Z,10.68
2023-02-17T09:46:37.395Z,13.27
2023-02-17T09:52:05.804Z,12.69
2023-02-17T09:57:19.859Z,11.85
2023-02-17T10:02:56.229Z,13.52
2023-02-17T10:08:08.687Z,11.29
2023-02-17T10:13:14.351Z,13.34
2023-02-17T10:18:26.628Z,13.35
2023-02-17T10:23:29.954Z,12.09
2023-02-17T10:28:52.357Z,13.63
2023-02-17T10:33:55.297Z,11.65
2023-02-17T10:39:16.056Z,13.42
2023-02-17T10:44:22.796Z,12.55
2023-02-17T10:49:39.637Z,12.60
2023-02-17T10:54:48.769Z,12.33
2023-02-17T10:59:52.086Z,11.09
2023-02-17T11:04:55.298Z,13.42
2023-02-17T11:10:03.366Z,11.99
2023-02-17T11:15:18.342Z,11.07
2023-02-17T11:20:21.187Z,13.48
2023-02-17T11:25:30.140Z,11.57
2023-02-17T11:30:36.007Z,12.60
2023-02-17T11:35:38.908Z,13.15
2023-02-17T11:40:51.589Z,11.63
2023-02-17T11:46:09.032Z,13.54
2023-02-17T11:51:24.894Z,11.87
2023-02-17T11:56:35.605Z,11.79
2023-02-17T12:01:38.368Z,13.03
2023-02-17T12:06:50.142Z,11.53
2023-02-17T12:12:01.489Z,13.35
2023-02-17T12:17:27.337Z,11.71
2023-02-17T12:22:40.465Z,12.61
2023-02-17T12:28:01.867Z,12.98
2023-02-17T12:33:10.892Z,11.39
2023-02-17T12:38:18.289Z,13.36
2023-02-17T12:43:49.092Z,11.79
2023-02-17T12:49:03.172Z,13.19
2023-02-17T12:54:16.856Z,12.43
2023-02-17T12:59:35.330Z,11.80
2023-02-17T13:04:39.466Z,13.56
2023-02-17T13:09:45.626Z,11.36
2023-02-17T13:14:49.679Z,13.21
2023-02-17T13:20:07.607Z,12.97
2023-02-17T13:25:30.084Z,10.86
2023-02-17T13:30:42.740Z,13.36
2023-02-17T13:35:45.622Z,12.62
2023-02-17T13:40:52.009Z,11.55
2023-02-17T13:46:04.699Z,13.30
2023-02-17T13:51:24.101Z,11.90
2023-02-17T13:56:29.533Z,13.65
2023-02-17T14:01:32.809Z,12.33
2023-02-17T14:06:42.234Z,12.01
2023-02-17T14:11:45.331Z,13.82
2023-02-17T14:16:57.398Z,12.65
2023-02-17T14:22:05.720Z,11.81
2023-02-17T14:27:14.313Z,14.01
2023-02-17T14:32:26.776Z,12.44
2023-02-17T14:37:32.049Z,12.30
2023-02-17T14:42:34.959Z,13.58
2023-02-17T14:47:37.860Z,11.57
2023-02-17T14:52:45.303Z,13.42
2023-02-17T14:57:48.784Z,13.68
2023-02-17T15:02:52.809Z,11.42
2023-02-17T15:07:55.715Z,13.24
2023-02-17T15:12:58.616Z,13.38
2023-02-17T15:18:01.420Z,11.56
2023-02-17T15:23:04.421Z,13.55
2023-02-17T15:28:07.836Z,13.45
2023-02-17T15:33:14.351Z,12.42
2023-02-17T15:38:17.538Z,13.15
2023-02-17T15:43:22.086Z,12.50
2023-02-17T15:48:27.850Z,13.74
2023-02-17T15:53:33.312Z,11.85
2023-02-17T15:58:36.525Z,13.43
2023-02-17T16:03:39.319Z,13.29
2023-02-17T16:08:42.121Z,11.49
2023-02-17T16:13:47.392Z,13.47
2023-02-17T16:18:51.035Z,12.98
2023-02-17T16:23:59.062Z,12.61
2023-02-17T16:29:10.431Z,14.23
2023-02-17T16:34:20.934Z,12.61
2023-02-17T16:39:24.093Z,13.29
2023-02-17T16:44:26.930Z,13.76
2023-02-17T16:49:32.832Z,12.06
2023-02-17T16:54:35.965Z,13.87
2023-02-17T16:59:38.806Z,13.57
2023-02-17T17:04:41.811Z,13.39
2023-02-17T17:09:48.669Z,13.90
2023-02-17T17:14:58.988Z,12.65
2023-02-17T17:20:01.885Z,14.43
2023-02-17T17:25:04.892Z,14.08
2023-02-17T17:30:09.540Z,13.09
2023-02-17T17:35:13.002Z,14.76
2023-02-17T17:40:25.643Z,13.12
2023-02-17T17:45:28.489Z,13.39
2023-02-17T17:50:31.495Z,14.35
2023-02-17T17:55:34.501Z,14.37
2023-02-17T18:00:37.412Z,14.53
2023-02-17T18:05:40.414Z,14.85
2023-02-17T18:10:43.318Z,14.71
2023-02-17T18:15:46.676Z,14.17
2023-02-17T18:20:49.641Z,14.37
2023-02-17T18:25:52.541Z,14.70
2023-02-17T18:30:57.094Z,15.27
2023-02-17T18:36:11.154Z,14.96
2023-02-17T18:41:24.186Z,14.99
2023-02-17T18:46:28.145Z,14.53
2023-02-17T18:51:31.135Z,14.88
2023-02-17T18:56:34.040Z,14.74
2023-02-17T19:01:40.012Z,14.49
2023-02-17T19:06:43.020Z,14.92
2023-02-17T19:11:45.902Z,15.29
2023-02-17T19:16:48.701Z,15.44
2023-02-17T19:21:51.608Z,14.88
2023-02-17T19:26:55.020Z,15.16
2023-02-17T19:31:59.643Z,15.47
2023-02-17T19:37:04.004Z,15.12
2023-02-17T19:42:08.169Z,15.27
2023-02-17T19:47:11.250Z,15.31
2023-02-17T19:52:14.161Z,15.45
2023-02-17T19:57:18.488Z,15.63
2023-02-17T20:02:21.534Z,15.88
2023-02-17T20:07:24.791Z,15.48
2023-02-17T20:12:27.609Z,13.81
2023-02-17T20:17:30.514Z,14.34
2023-02-17T20:22:33.320Z,14.23
2023-02-17T20:27:36.218Z,13.11
2023-02-17T20:32:39.329Z,13.44
2023-02-17T20:37:42.116Z,13.78
2023-02-17T20:42:45.133Z,13.35
2023-02-17T20:47:48.038Z,12.70
2023-02-17T20:52:51.263Z,13.15
2023-02-17T20:57:54.568Z,12.82
2023-02-17T21:02:57.945Z,12.22
2023-02-17T21:08:00.869Z,10.99
2023-02-17T21:13:03.657Z,10.34
2023-02-17T21:18:08.958Z,10.23
2023-02-17T21:23:11.949Z,10.67
2023-02-17T21:28:17.209Z,11.30
2023-02-17T21:33:20.416Z,11.46
2023-02-17T21:38:23.543Z,10.72
2023-02-17T21:43:44.860Z,11.45
2023-02-17T21:48:48.593Z,11.24
2023-02-17T21:53:52.882Z,11.09
2023-02-17T21:58:56.137Z,10.64
2023-02-17T22:03:59.382Z,10.99
2023-02-17T22:09:03.067Z,11.04
2023-02-17T22:14:10.374Z,10.13
2023-02-17T22:19:21.384Z,10.41
2023-02-17T22:24:27.267Z,10.62
2023-02-17T22:29:30.345Z,10.43
2023-02-17T22:34:33.557Z,10.14
2023-02-17T22:39:36.360Z,9.71
2023-02-17T22:44:39.164Z,10.47
2023-02-17T22:49:43.012Z,9.57
2023-02-17T22:54:45.889Z,10.11
2023-02-17T22:59:48.686Z,9.14
2023-02-17T23:04:51.591Z,10.14
2023-02-17T23:09:54.354Z,9.30
2023-02-17T23:14:57.301Z,10.35
2023-02-17T23:20:00.163Z,10.29
2023-02-17T23:25:03.105Z,9.72
2023-02-17T23:30:09.368Z,10.25
2023-02-17T23:35:12.406Z,10.78
2023-02-17T23:40:15.712Z,10.64
2023-02-17T23:45:18.518Z,10.57
2023-02-17T23:50:21.313Z,9.56
2023-02-17T23:55:24.626Z,10.21
